Time;durP1;ratioP1;P1;durP2;ratioP2;P2;SDS_P1;SDS_P2;PMS_P1;PMS_P2;Temp;Humidity;BMP_temperature;BMP_pressure;BME280_temperature;BME280_humidity;BME280_pressure;Samples;Min_cycle;Max_cycle;Signal;HPM_P1;HPM_P2
2023/06/13 00:02:20;;;;;;;27.60;25.33;;;12.50;99.90;;;;;;5085389;28;20043;-71
2023/06/13 00:04:48;;;;;;;25.90;23.55;;;12.50;99.90;;;;;;5085535;28;20311;-71
2023/06/13 00:07:15;;;;;;;26.63;24.45;;;12.40;99.90;;;;;;5064595;28;20082;-71
2023/06/13 00:09:42;;;;;;;27.27;24.77;;;12.40;99.90;;;;;;5069219;28;20054;-71
2023/06/13 00:12:09;;;;;;;27.17;24.63;;;12.50;99.90;;;;;;5069869;28;20152;-73
2023/06/13 00:14:36;;;;;;;26.92;24.75;;;12.60;99.90;;;;;;5082402;28;20043;-70
2023/06/13 00:17:04;;;;;;;27.42;25.13;;;12.50;99.90;;;;;;5077459;28;20039;-70
2023/06/13 00:19:30;;;;;;;26.77;24.58;;;12.40;99.90;;;;;;5070675;28;20036;-71
2023/06/13 00:21:58;;;;;;;26.63;24.33;;;12.30;99.90;;;;;;5081170;28;20043;-70
2023/06/13 00:24:24;;;;;;;27.73;25.35;;;12.30;99.90;;;;;;5089802;28;20048;-71
2023/06/13 00:26:51;;;;;;;26.48;24.38;;;12.30;99.90;;;;;;5082617;28;20050;-70
2023/06/13 00:29:18;;;;;;;26.98;24.77;;;12.20;99.90;;;;;;5082269;28;20036;-70
2023/06/13 00:31:47;;;;;;;26.58;24.48;;;12.10;99.90;;;;;;5060890;28;20040;-70
2023/06/13 00:34:15;;;;;;;27.00;24.70;;;12.00;99.90;;;;;;5047615;28;20043;-71
2023/06/13 00:36:43;;;;;;;26.85;24.45;;;11.90;99.90;;;;;;5062517;28;20084;-71
2023/06/13 00:39:10;;;;;;;26.30;24.30;;;11.80;99.90;;;;;;5085694;28;20062;-70
2023/06/13 00:41:38;;;;;;;25.52;23.45;;;11.70;99.90;;;;;;5072932;28;20470;-71
2023/06/13 00:44:05;;;;;;;24.95;23.05;;;11.70;99.90;;;;;;5085625;28;20032;-70
2023/06/13 00:46:35;;;;;;;24.83;22.70;;;11.90;99.90;;;;;;5070000;28;20677;-69
2023/06/13 00:49:04;;;;;;;25.23;23.23;;;12.00;99.90;;;;;;5062457;28;20353;-69
2023/06/13 00:51:35;;;;;;;24.88;23.05;;;12.00;99.90;;;;;;5086367;28;20040;-69
2023/06/13 00:54:06;;;;;;;25.70;23.77;;;11.80;99.90;;;;;;5082539;28;20038;-70
2023/06/13 00:56:34;;;;;;;25.25;23.25;;;11.70;99.90;;;;;;5081049;28;20259;-70
2023/06/13 00:59:02;;;;;;;25.10;23.17;;;11.60;99.90;;;;;;5056658;28;20273;-70
2023/06/13 01:01:30;;;;;;;26.58;24.50;;;11.60;99.90;;;;;;5065169;28;20509;-70
2023/06/13 01:03:59;;;;;;;26.77;24.48;;;11.60;99.90;;;;;;5062715;28;20044;-70
2023/06/13 01:06:28;;;;;;;25.80;23.70;;;11.50;99.90;;;;;;5085568;28;20051;-70
2023/06/13 01:08:58;;;;;;;25.67;23.67;;;11.40;99.90;;;;;;5080413;28;20112;-69
2023/06/13 01:11:47;;;;;;;26.10;24.00;;;11.40;99.90;;;;;;5087487;28;20050;-71
2023/06/13 01:14:21;;;;;;;26.00;23.83;;;11.30;99.90;;;;;;5081608;28;20050;-70
2023/06/13 01:16:54;;;;;;;26.20;24.15;;;11.30;99.90;;;;;;5069143;28;20071;-71
2023/06/13 01:19:40;;;;;;;25.33;23.30;;;11.30;99.90;;;;;;5084894;28;20047;-70
2023/06/13 01:22:15;;;;;;;25.58;23.67;;;11.20;99.90;;;;;;5085761;28;20472;-69
2023/06/13 01:25:08;;;;;;;26.05;23.95;;;11.10;99.90;;;;;;5048607;28;20044;-69
2023/06/13 01:27:37;;;;;;;25.65;23.58;;;11.10;99.90;;;;;;5060913;28;20441;-70
2023/06/13 01:30:06;;;;;;;26.15;24.00;;;11.10;99.90;;;;;;5088162;28;20048;-71
2023/06/13 01:32:34;;;;;;;25.15;23.10;;;11.10;99.90;;;;;;5088558;28;20086;-71
2023/06/13 01:35:02;;;;;;;25.75;23.75;;;11.00;99.90;;;;;;5067105;28;20502;-70
2023/06/13 01:37:29;;;;;;;25.25;23.25;;;11.10;99.90;;;;;;5073138;28;20565;-71
2023/06/13 01:39:56;;;;;;;26.48;24.27;;;11.00;99.90;;;;;;5064097;28;20039;-70
2023/06/13 01:42:23;;;;;;;24.67;22.92;;;10.90;99.90;;;;;;5087206;28;20593;-71
2023/06/13 01:44:52;;;;;;;25.98;23.80;;;11.00;99.90;;;;;;5054148;28;20142;-69
2023/06/13 01:47:37;;;;;;;25.80;23.80;;;11.00;99.90;;;;;;5089688;28;20109;-71
2023/06/13 01:50:27;;;;;;;25.23;23.33;;;11.00;99.90;;;;;;5085032;28;20584;-70
2023/06/13 01:53:23;;;;;;;25.52;23.13;;;11.00;99.90;;;;;;5097700;28;20051;-69
2023/06/13 01:56:02;;;;;;;26.52;24.27;;;10.90;99.90;;;;;;5070604;28;20071;-70
2023/06/13 01:58:31;;;;;;;26.55;24.30;;;10.90;99.90;;;;;;5088944;28;20069;-70
2023/06/13 02:01:03;;;;;;;25.77;23.80;;;10.80;99.90;;;;;;5100173;27;20441;-69
2023/06/13 02:03:31;;;;;;;25.45;23.45;;;10.90;99.90;;;;;;5081794;28;20501;-70
2023/06/13 02:05:58;;;;;;;26.33;24.27;;;11.00;99.90;;;;;;5063683;28;20054;-70
2023/06/13 02:08:26;;;;;;;26.63;24.25;;;10.90;99.90;;;;;;5066810;28;20043;-70
2023/06/13 02:10:53;;;;;;;26.23;24.00;;;10.80;99.90;;;;;;5065665;28;20085;-70
2023/06/13 02:13:20;;;;;;;26.45;24.35;;;10.80;99.90;;;;;;5068819;28;20051;-71
2023/06/13 02:15:46;;;;;;;26.63;24.27;;;10.80;99.90;;;;;;5072839;28;20632;-70
2023/06/13 02:18:15;;;;;;;26.23;23.98;;;10.70;99.90;;;;;;5087116;28;20100;-70
2023/06/13 02:20:42;;;;;;;25.20;23.30;;;10.60;99.90;;;;;;5081728;28;20052;-69
2023/06/13 02:23:09;;;;;;;26.35;24.35;;;10.70;99.90;;;;;;5088752;27;20043;-69
2023/06/13 02:25:36;;;;;;;25.45;23.55;;;10.70;99.90;;;;;;5088288;28;20529;-71
2023/06/13 02:28:03;;;;;;;26.70;24.52;;;10.60;99.90;;;;;;5088714;28;21443;-70
2023/06/13 02:30:30;;;;;;;26.63;24.55;;;10.60;99.90;;;;;;5089505;28;20286;-70
2023/06/13 02:33:01;;;;;;;26.67;24.58;;;10.50;99.90;;;;;;5063314;28;20048;-70
2023/06/13 02:35:27;;;;;;;27.58;25.30;;;10.50;99.90;;;;;;5085463;28;20079;-70
2023/06/13 02:37:54;;;;;;;27.48;24.98;;;10.50;99.90;;;;;;5072143;28;20112;-70
2023/06/13 02:40:22;;;;;;;26.88;24.42;;;10.50;99.90;;;;;;5087758;28;20039;-71
2023/06/13 02:42:50;;;;;;;27.52;25.17;;;10.50;99.90;;;;;;5087499;28;20117;-70
2023/06/13 02:45:17;;;;;;;26.95;24.83;;;10.40;99.90;;;;;;5071953;28;20995;-71
2023/06/13 02:47:45;;;;;;;26.25;24.23;;;10.50;99.90;;;;;;5075725;28;20127;-69
2023/06/13 02:50:12;;;;;;;27.48;25.15;;;10.50;99.90;;;;;;5087506;28;20039;-70
2023/06/13 02:52:39;;;;;;;27.88;25.38;;;10.50;99.90;;;;;;5090682;28;20044;-70
2023/06/13 02:55:07;;;;;;;26.83;24.50;;;10.50;99.90;;;;;;5086074;28;20562;-70
2023/06/13 02:57:39;;;;;;;27.25;25.13;;;10.50;99.90;;;;;;5074567;28;20145;-69
2023/06/13 03:00:09;;;;;;;26.77;24.45;;;10.60;99.90;;;;;;5062943;28;20471;-70
2023/06/13 03:02:38;;;;;;;26.08;24.08;;;10.60;99.90;;;;;;5062263;28;20078;-71
2023/06/13 03:05:11;;;;;;;27.92;25.42;;;10.60;99.90;;;;;;5061103;28;20056;-70
2023/06/13 03:07:42;;;;;;;27.58;25.05;;;10.60;99.90;;;;;;5070783;28;20042;-70
2023/06/13 03:10:10;;;;;;;25.38;23.30;;;10.60;99.90;;;;;;5082790;28;20047;-70
2023/06/13 03:12:40;;;;;;;26.23;24.00;;;10.60;99.90;;;;;;5056687;28;20060;-70
2023/06/13 03:15:07;;;;;;;25.38;23.48;;;10.70;99.90;;;;;;5086885;28;20334;-70
2023/06/13 03:17:35;;;;;;;25.20;23.30;;;10.70;99.90;;;;;;5082481;28;20447;-71
2023/06/13 03:20:05;;;;;;;26.42;24.23;;;10.70;99.90;;;;;;5060287;28;20043;-71
2023/06/13 03:22:34;;;;;;;24.73;22.83;;;10.70;99.90;;;;;;5067982;28;20080;-70
2023/06/13 03:25:04;;;;;;;26.88;24.33;;;10.70;99.90;;;;;;5067004;28;20417;-70
2023/06/13 03:27:36;;;;;;;24.58;22.73;;;10.70;99.90;;;;;;5066724;28;20075;-70
2023/06/13 03:30:04;;;;;;;26.35;24.20;;;10.70;99.90;;;;;;5060180;28;20048;-69
2023/06/13 03:32:31;;;;;;;26.52;24.00;;;10.70;99.90;;;;;;5066834;28;20490;-70
2023/06/13 03:35:00;;;;;;;26.58;24.35;;;10.70;99.90;;;;;;5085260;28;20462;-70
2023/06/13 03:37:27;;;;;;;26.13;24.15;;;10.80;99.90;;;;;;5055945;28;20513;-71
2023/06/13 03:39:55;;;;;;;27.25;24.83;;;10.80;99.90;;;;;;5067455;28;20055;-71
2023/06/13 03:42:21;;;;;;;27.55;25.38;;;10.90;99.90;;;;;;5081547;28;20083;-70
2023/06/13 03:44:49;;;;;;;26.45;24.42;;;11.00;99.90;;;;;;5060710;28;20085;-69
2023/06/13 03:47:16;;;;;;;27.33;25.33;;;11.10;99.90;;;;;;5067212;28;20067;-70
2023/06/13 03:49:43;;;;;;;26.85;24.85;;;11.00;99.90;;;;;;5069718;28;20563;-70
2023/06/13 03:52:11;;;;;;;26.98;24.88;;;11.00;99.90;;;;;;5069477;28;20662;-70
2023/06/13 03:54:38;;;;;;;28.10;25.52;;;11.00;99.90;;;;;;5084265;27;20087;-71
2023/06/13 03:57:06;;;;;;;26.98;24.98;;;11.00;99.90;;;;;;5058757;28;20641;-71
2023/06/13 03:59:33;;;;;;;27.20;25.20;;;11.00;99.90;;;;;;5077571;28;20311;-71
2023/06/13 04:02:01;;;;;;;27.17;25.17;;;11.10;99.90;;;;;;5084811;28;20054;-70
2023/06/13 04:04:27;;;;;;;27.83;25.73;;;11.10;99.90;;;;;;5091813;27;20316;-72
2023/06/13 04:06:55;;;;;;;27.70;25.42;;;11.20;99.90;;;;;;5061601;28;20059;-72
2023/06/13 04:09:23;;;;;;;28.40;25.88;;;11.30;99.90;;;;;;5067556;28;21462;-72
2023/06/13 04:11:50;;;;;;;28.23;25.92;;;11.40;99.90;;;;;;5065295;28;20441;-71
2023/06/13 04:14:17;;;;;;;28.30;26.08;;;11.40;99.90;;;;;;5062653;28;20047;-72
2023/06/13 04:16:44;;;;;;;28.83;26.58;;;11.50;99.90;;;;;;5072226;28;20306;-70
2023/06/13 04:19:14;;;;;;;28.13;25.92;;;11.70;99.90;;;;;;5080095;28;21794;-71
2023/06/13 04:21:40;;;;;;;29.98;27.52;;;11.70;99.90;;;;;;5069049;28;20048;-71
2023/06/13 04:24:07;;;;;;;28.60;26.00;;;11.80;99.90;;;;;;5061141;28;20554;-71
2023/06/13 04:26:35;;;;;;;28.73;26.20;;;11.90;99.90;;;;;;5082575;28;20048;-71
2023/06/13 04:29:02;;;;;;;27.65;25.75;;;12.00;99.90;;;;;;5061822;28;20082;-71
2023/06/13 04:31:34;;;;;;;28.50;26.38;;;12.30;99.90;;;;;;5070751;28;20075;-70
2023/06/13 04:34:07;;;;;;;30.13;27.70;;;12.60;99.90;;;;;;5064903;28;20051;-71
2023/06/13 04:36:35;;;;;;;31.98;29.45;;;13.00;99.90;;;;;;5081410;28;20614;-71
2023/06/13 04:39:04;;;;;;;33.05;30.15;;;13.50;99.90;;;;;;5078349;28;20105;-71
2023/06/13 04:41:35;;;;;;;32.78;30.02;;;13.80;99.90;;;;;;5063140;28;20689;-71
2023/06/13 04:44:05;;;;;;;32.75;30.25;;;14.40;99.90;;;;;;5080318;28;20047;-68
2023/06/13 04:46:32;;;;;;;32.65;30.08;;;14.80;99.90;;;;;;5083627;28;20116;-71
2023/06/13 04:49:00;;;;;;;34.72;32.03;;;15.10;99.90;;;;;;5063365;28;20052;-71
2023/06/13 04:51:28;;;;;;;33.40;30.55;;;15.60;99.90;;;;;;5087033;28;20393;-73
2023/06/13 04:53:58;;;;;;;34.40;31.42;;;16.00;99.90;;;;;;5078320;28;20124;-72
2023/06/13 04:56:27;;;;;;;34.75;31.80;;;16.30;99.90;;;;;;5082623;28;20071;-70
2023/06/13 04:58:55;;;;;;;34.45;31.65;;;16.60;99.90;;;;;;5077120;28;20047;-68
2023/06/13 05:01:26;;;;;;;33.20;30.30;;;16.90;99.90;;;;;;5084989;28;20032;-71
2023/06/13 05:03:55;;;;;;;34.47;31.88;;;17.20;99.90;;;;;;5084926;28;20056;-71
2023/06/13 05:06:27;;;;;;;34.22;31.42;;;17.30;99.90;;;;;;5081106;28;20051;-72
2023/06/13 05:08:54;;;;;;;34.08;31.27;;;17.50;99.90;;;;;;5079914;28;20101;-71
2023/06/13 05:11:21;;;;;;;34.45;31.23;;;17.80;99.90;;;;;;5086462;28;20032;-71
2023/06/13 05:13:48;;;;;;;32.90;30.30;;;18.10;99.90;;;;;;5085272;28;20067;-72
2023/06/13 05:16:17;;;;;;;34.08;31.38;;;18.00;99.90;;;;;;5064205;28;20166;-68
2023/06/13 05:18:44;;;;;;;32.85;30.15;;;18.20;99.90;;;;;;5086869;28;20058;-69
2023/06/13 05:21:16;;;;;;;33.22;30.48;;;18.50;99.90;;;;;;5074398;28;20048;-72
2023/06/13 05:23:44;;;;;;;33.17;30.50;;;18.30;99.90;;;;;;5082807;28;20079;-69
2023/06/13 05:26:11;;;;;;;34.42;31.52;;;18.40;99.90;;;;;;5086232;28;20703;-70
2023/06/13 05:28:38;;;;;;;34.97;32.08;;;18.60;99.90;;;;;;5091010;28;20031;-73
2023/06/13 05:31:05;;;;;;;34.63;32.05;;;18.70;99.90;;;;;;5083232;28;20135;-73
2023/06/13 05:33:33;;;;;;;33.30;30.80;;;18.70;99.90;;;;;;5084143;28;20046;-72
2023/06/13 05:36:00;;;;;;;34.35;31.65;;;18.70;99.90;;;;;;5082942;28;20040;-72
2023/06/13 05:38:26;;;;;;;34.60;32.00;;;18.90;99.90;;;;;;5090547;28;20032;-72
2023/06/13 05:40:53;;;;;;;34.00;31.50;;;19.20;99.90;;;;;;5083969;28;20047;-71
2023/06/13 05:43:20;;;;;;;34.20;31.40;;;19.70;99.90;;;;;;5086637;28;20050;-71
2023/06/13 05:45:48;;;;;;;34.85;32.33;;;19.50;99.90;;;;;;5091170;28;20036;-70
2023/06/13 05:48:14;;;;;;;35.30;32.50;;;19.50;99.90;;;;;;5083564;28;20324;-72
2023/06/13 05:50:41;;;;;;;37.55;34.70;;;19.40;99.90;;;;;;5084757;28;20047;-70
2023/06/13 05:53:10;;;;;;;38.47;35.17;;;19.30;99.90;;;;;;5087283;28;20028;-71
2023/06/13 05:55:37;;;;;;;38.38;35.75;;;19.40;99.90;;;;;;5091802;28;20210;-72
2023/06/13 05:58:03;;;;;;;37.38;34.63;;;19.50;99.90;;;;;;5090419;27;20044;-70
2023/06/13 06:00:30;;;;;;;38.10;35.42;;;19.30;99.90;;;;;;5085308;28;20051;-71
2023/06/13 06:03:00;;;;;;;39.72;36.63;;;19.50;99.90;;;;;;5079804;28;20105;-71
2023/06/13 06:05:29;;;;;;;39.38;36.65;;;19.80;99.90;;;;;;5070898;28;20164;-72
2023/06/13 06:07:56;;;;;;;39.47;36.58;;;19.90;99.90;;;;;;5088568;28;20052;-70
2023/06/13 06:10:22;;;;;;;39.17;36.00;;;20.20;99.90;;;;;;5086672;28;20067;-71
2023/06/13 06:12:49;;;;;;;40.42;37.55;;;20.30;99.90;;;;;;5074484;28;20051;-71
2023/06/13 06:15:16;;;;;;;39.42;36.67;;;20.30;99.90;;;;;;5080803;28;20142;-71
2023/06/13 06:17:42;;;;;;;38.97;36.28;;;20.50;99.90;;;;;;5061727;28;20091;-72
2023/06/13 06:20:10;;;;;;;39.05;36.15;;;20.60;99.90;;;;;;5080588;28;20083;-71
2023/06/13 06:22:37;;;;;;;38.67;35.78;;;20.60;99.90;;;;;;5089233;28;20339;-71
2023/06/13 06:25:05;;;;;;;39.22;36.33;;;20.90;99.90;;;;;;5079702;28;20582;-71
2023/06/13 06:27:32;;;;;;;39.03;36.28;;;21.30;99.90;;;;;;5082698;28;20602;-72
2023/06/13 06:29:59;;;;;;;39.30;36.30;;;21.60;99.90;;;;;;5080240;28;20122;-71
2023/06/13 06:32:26;;;;;;;41.55;38.35;;;21.50;99.90;;;;;;5083693;28;20039;-71
2023/06/13 06:34:54;;;;;;;42.83;39.83;;;21.00;99.90;;;;;;5083573;28;20036;-70
2023/06/13 06:37:22;;;;;;;40.97;38.10;;;20.90;99.90;;;;;;5066825;28;20044;-72
2023/06/13 06:39:48;;;;;;;41.63;38.60;;;20.80;99.90;;;;;;5083826;28;20647;-71
2023/06/13 06:42:15;;;;;;;42.45;39.53;;;20.80;99.90;;;;;;5083635;28;20040;-71
2023/06/13 06:44:56;;;;;;;39.92;37.33;;;20.70;99.90;;;;;;5066835;28;20336;-71
2023/06/13 06:47:23;;;;;;;41.38;38.63;;;20.70;99.90;;;;;;5058330;28;20496;-71
2023/06/13 06:49:49;;;;;;;41.88;38.80;;;20.50;99.90;;;;;;5086014;28;20519;-71
2023/06/13 06:52:16;;;;;;;41.35;38.60;;;21.00;99.90;;;;;;5063705;28;20039;-70
2023/06/13 06:54:43;;;;;;;43.42;40.17;;;21.40;99.90;;;;;;5081999;28;20138;-71
2023/06/13 06:57:10;;;;;;;40.88;38.17;;;21.40;99.90;;;;;;5076800;28;20656;-71
2023/06/13 06:59:37;;;;;;;42.47;39.60;;;22.10;99.90;;;;;;5078890;28;20048;-71
2023/06/13 07:02:04;;;;;;;42.70;40.00;;;22.60;99.90;;;;;;5084130;28;20040;-71
2023/06/13 07:04:32;;;;;;;42.88;39.97;;;23.00;99.90;;;;;;5087521;28;20050;-70
2023/06/13 07:06:58;;;;;;;42.50;39.67;;;23.20;99.90;;;;;;5086221;27;20039;-71
2023/06/13 07:09:25;;;;;;;43.60;40.88;;;23.60;99.90;;;;;;5083762;28;20073;-71
2023/06/13 07:11:56;;;;;;;42.25;39.50;;;23.50;99.90;;;;;;5061171;28;20086;-71
2023/06/13 07:14:25;;;;;;;43.30;40.35;;;23.00;99.90;;;;;;5084829;28;20028;-71
2023/06/13 07:16:55;;;;;;;42.58;39.88;;;22.70;99.90;;;;;;5069850;28;20143;-70
2023/06/13 07:19:23;;;;;;;43.85;40.65;;;22.50;99.90;;;;;;5063256;28;20982;-70
2023/06/13 07:21:50;;;;;;;42.92;40.10;;;22.90;99.90;;;;;;5089620;28;20055;-71
2023/06/13 07:24:16;;;;;;;45.00;42.05;;;23.30;99.90;;;;;;5080116;28;20039;-71
2023/06/13 07:26:43;;;;;;;47.05;43.85;;;23.50;99.90;;;;;;5081167;28;20036;-71
2023/06/13 07:29:10;;;;;;;45.67;42.67;;;23.50;99.90;;;;;;5083954;28;20047;-72
2023/06/13 07:31:37;;;;;;;45.70;42.72;;;23.50;99.90;;;;;;5081626;28;20071;-71
2023/06/13 07:34:04;;;;;;;45.53;42.63;;;23.40;99.90;;;;;;5083691;28;20698;-71
2023/06/13 07:36:41;;;;;;;44.90;41.90;;;23.50;99.90;;;;;;5085437;28;20546;-71
2023/06/13 07:39:14;;;;;;;43.35;40.47;;;23.50;99.90;;;;;;5076684;28;20063;-70
2023/06/13 07:41:44;;;;;;;44.35;41.38;;;23.50;99.90;;;;;;5067688;28;20128;-70
2023/06/13 07:44:10;;;;;;;44.83;41.95;;;23.80;99.90;;;;;;5066654;28;20063;-69
2023/06/13 07:46:37;;;;;;;43.78;40.92;;;24.30;99.90;;;;;;5086639;28;20148;-68
2023/06/13 07:49:04;;;;;;;45.38;42.42;;;24.40;99.90;;;;;;5085966;28;20047;-67
2023/06/13 07:51:32;;;;;;;46.88;43.88;;;24.70;99.90;;;;;;5083518;28;20047;-68
2023/06/13 07:53:59;;;;;;;44.78;41.85;;;24.20;99.90;;;;;;5064120;28;20105;-69
2023/06/13 07:56:26;;;;;;;47.63;44.03;;;24.00;99.90;;;;;;5082193;28;20066;-71
2023/06/13 07:58:53;;;;;;;46.25;43.25;;;23.20;99.90;;;;;;5083162;28;20039;-64
2023/06/13 08:05:51;;;;;;;46.92;43.67;;;22.90;99.90;;;;;;5083720;28;20043;-73
2023/06/13 08:08:19;;;;;;;47.17;43.97;;;23.20;99.90;;;;;;5069514;28;20044;-74
2023/06/13 08:10:46;;;;;;;46.78;43.65;;;23.10;99.90;;;;;;5084986;28;20627;-68
2023/06/13 08:13:13;;;;;;;47.30;44.20;;;23.40;99.90;;;;;;5068409;28;20474;-69
2023/06/13 08:15:41;;;;;;;46.92;43.83;;;23.90;99.90;;;;;;5069531;28;20118;-72
2023/06/13 08:18:08;;;;;;;47.53;44.08;;;24.40;99.90;;;;;;5064342;28;20109;-73
2023/06/13 08:20:36;;;;;;;46.83;43.72;;;24.30;99.90;;;;;;5078463;28;20113;-70
2023/06/13 08:23:03;;;;;;;47.55;44.22;;;23.20;99.90;;;;;;5081828;28;20043;-70
2023/06/13 08:25:30;;;;;;;46.20;43.25;;;23.10;99.90;;;;;;5083963;28;20078;-72
2023/06/13 08:27:57;;;;;;;47.40;44.30;;;23.50;99.90;;;;;;5085723;28;20562;-72
2023/06/13 08:30:24;;;;;;;48.42;45.22;;;23.80;99.90;;;;;;5060388;28;20507;-74
2023/06/13 08:32:54;;;;;;;45.63;42.63;;;23.70;99.90;;;;;;5065473;28;20682;-73
2023/06/13 08:35:24;;;;;;;46.13;42.92;;;24.10;99.90;;;;;;5067092;28;20454;-74
2023/06/13 08:37:51;;;;;;;45.97;42.83;;;24.50;99.90;;;;;;5085749;28;20723;-74
2023/06/13 08:40:19;;;;;;;45.08;42.15;;;24.50;99.90;;;;;;5080770;28;20131;-78
2023/06/13 08:42:46;;;;;;;46.67;43.47;;;24.60;99.90;;;;;;5080795;28;20044;-73
2023/06/13 08:45:13;;;;;;;47.42;44.20;;;25.00;99.90;;;;;;5076629;28;20516;-72
2023/06/13 08:47:46;;;;;;;47.45;44.25;;;24.80;99.90;;;;;;5061972;28;20039;-71
2023/06/13 08:50:18;;;;;;;48.13;44.92;;;25.20;99.90;;;;;;5065711;28;20048;-73
2023/06/13 08:52:47;;;;;;;48.28;45.17;;;24.90;99.90;;;;;;5087531;28;20036;-73
2023/06/13 08:55:16;;;;;;;48.88;45.60;;;24.60;99.90;;;;;;5066447;28;20047;-72
2023/06/13 08:58:05;;;;;;;49.45;46.22;;;24.50;99.90;;;;;;5080164;28;20043;-71
2023/06/13 09:00:35;;;;;;;49.28;45.92;;;24.50;99.90;;;;;;5068486;28;20035;-70
2023/06/13 09:03:03;;;;;;;48.83;45.40;;;24.10;99.90;;;;;;5065553;28;20044;-71
2023/06/13 09:05:32;;;;;;;47.90;44.88;;;23.30;99.90;;;;;;5088821;28;20040;-70
2023/06/13 09:08:00;;;;;;;49.05;45.53;;;23.00;99.90;;;;;;5092484;28;20537;-71
2023/06/13 09:10:48;;;;;;;51.40;48.00;;;23.30;99.90;;;;;;5087457;28;20047;-72
2023/06/13 09:13:16;;;;;;;51.35;48.15;;;23.70;99.90;;;;;;5081840;28;20036;-71
2023/06/13 09:15:44;;;;;;;49.85;46.50;;;24.00;99.90;;;;;;5084864;28;20134;-73
2023/06/13 09:18:11;;;;;;;46.13;43.30;;;24.10;99.90;;;;;;5089434;28;20047;-69
2023/06/13 09:20:38;;;;;;;50.15;46.97;;;24.20;99.90;;;;;;5092165;28;20056;-69
2023/06/13 09:23:06;;;;;;;49.00;45.67;;;24.10;99.90;;;;;;5119472;22;20043;-77
2023/06/13 09:25:35;;;;;;;50.55;46.80;;;24.20;99.90;;;;;;5068877;28;20040;-78
2023/06/13 09:28:31;;;;;;;49.28;46.22;;;24.80;99.90;;;;;;5058207;28;20048;-77
2023/06/13 09:30:58;;;;;;;52.22;48.65;;;24.70;99.90;;;;;;5069123;28;20039;-77
2023/06/13 09:33:25;;;;;;;46.97;44.08;;;24.70;99.90;;;;;;5044973;28;20059;-78
2023/06/13 09:35:52;;;;;;;47.97;44.88;;;25.10;99.90;;;;;;5055218;28;20701;-76
2023/06/13 09:38:23;;;;;;;52.67;49.17;;;25.10;99.60;;;;;;5055203;28;20051;-77
2023/06/13 09:40:55;;;;;;;48.45;45.25;;;24.40;99.90;;;;;;5054464;28;20032;-77
2023/06/13 09:43:23;;;;;;;49.05;45.83;;;23.60;99.90;;;;;;5050953;28;20036;-77
2023/06/13 09:45:51;;;;;;;45.40;42.58;;;23.20;99.90;;;;;;5053329;28;20544;-77
2023/06/13 09:48:18;;;;;;;53.05;49.65;;;22.80;99.90;;;;;;5054889;28;20051;-76
2023/06/13 09:50:45;;;;;;;51.42;48.03;;;22.70;99.90;;;;;;5055424;28;20041;-78
2023/06/13 09:53:12;;;;;;;46.15;43.05;;;23.30;99.90;;;;;;5060509;28;20044;-76
2023/06/13 09:55:39;;;;;;;49.72;46.35;;;23.50;99.90;;;;;;5070379;28;20051;-76
2023/06/13 09:58:06;;;;;;;48.45;45.30;;;22.80;99.90;;;;;;5046845;28;20536;-76
2023/06/13 10:00:59;;;;;;;49.03;45.72;;;22.90;99.90;;;;;;5042731;28;20256;-76
2023/06/13 10:03:33;;;;;;;49.15;45.95;;;22.90;99.90;;;;;;5047122;28;20067;-76
2023/06/13 10:06:00;;;;;;;49.72;46.33;;;23.20;99.90;;;;;;5050861;28;20056;-76
2023/06/13 10:08:27;;;;;;;49.70;46.60;;;23.40;99.90;;;;;;5032522;28;20043;-77
2023/06/13 10:10:56;;;;;;;48.92;45.72;;;23.60;99.90;;;;;;5046382;28;20047;-76
2023/06/13 10:13:26;;;;;;;50.40;47.22;;;24.00;99.90;;;;;;5029270;28;20044;-76
2023/06/13 10:15:58;;;;;;;51.08;47.47;;;24.30;99.90;;;;;;5050826;28;20040;-77
2023/06/13 10:18:39;;;;;;;52.20;48.78;;;25.10;99.90;;;;;;5051569;28;20040;-77
2023/06/13 10:21:08;;;;;;;46.28;43.15;;;25.40;98.80;;;;;;5067927;28;20048;-77
2023/06/13 10:23:44;;;;;;;46.85;43.85;;;25.90;99.90;;;;;;5050045;28;20064;-76
2023/06/13 10:26:27;;;;;;;47.83;44.70;;;25.40;99.70;;;;;;5053035;28;20123;-76
2023/06/13 10:29:06;;;;;;;51.40;48.10;;;24.30;99.90;;;;;;5047631;28;20047;-76
2023/06/13 10:31:41;;;;;;;52.33;48.95;;;23.80;99.90;;;;;;5056548;28;20483;-78
2023/06/13 10:34:57;;;;;;;53.10;49.78;;;23.50;99.90;;;;;;5057817;28;20337;-76
2023/06/13 10:37:57;;;;;;;51.05;47.78;;;23.70;99.90;;;;;;5052962;28;20048;-77
2023/06/13 10:40:45;;;;;;;53.40;50.15;;;24.40;99.90;;;;;;5057212;28;20056;-77
2023/06/13 10:43:29;;;;;;;47.40;44.53;;;24.40;99.90;;;;;;5045381;28;20051;-77
2023/06/13 10:46:03;;;;;;;46.87;44.07;;;24.20;99.90;;;;;;5047375;28;20033;-77
2023/06/13 10:48:47;;;;;;;52.92;49.80;;;23.60;99.90;;;;;;5051480;28;20305;-77
2023/06/13 10:51:29;;;;;;;45.93;42.93;;;23.80;99.90;;;;;;5051773;28;20106;-77
2023/06/13 10:54:06;;;;;;;45.67;42.65;;;24.70;99.80;;;;;;5076057;28;20481;-76
2023/06/13 10:56:35;;;;;;;45.15;42.05;;;24.20;99.10;;;;;;5054531;28;20876;-77
2023/06/13 10:59:07;;;;;;;51.60;47.65;;;23.50;99.90;;;;;;5053510;28;20126;-77
2023/06/13 11:01:35;;;;;;;43.80;40.90;;;23.10;99.90;;;;;;5037623;28;20536;-78
2023/06/13 11:04:08;;;;;;;53.42;49.95;;;23.50;99.90;;;;;;5050899;28;20044;-77
2023/06/13 11:06:36;;;;;;;46.78;43.83;;;23.70;99.90;;;;;;5051718;28;20719;-76
2023/06/13 11:09:20;;;;;;;46.40;43.20;;;23.50;99.90;;;;;;5041717;28;20036;-77
2023/06/13 11:11:48;;;;;;;50.05;46.55;;;23.30;99.90;;;;;;5037094;28;20703;-76
2023/06/13 11:14:19;;;;;;;46.00;42.95;;;23.10;99.90;;;;;;5064404;28;20131;-76
2023/06/13 11:16:46;;;;;;;49.28;45.97;;;22.90;99.90;;;;;;5069535;28;20066;-77
2023/06/13 11:19:15;;;;;;;48.40;44.72;;;23.10;99.90;;;;;;5053077;28;20758;-77
2023/06/13 11:21:48;;;;;;;48.13;45.03;;;23.30;99.90;;;;;;5046612;28;20048;-77
2023/06/13 11:24:16;;;;;;;49.97;46.47;;;23.80;99.90;;;;;;5035655;28;20051;-77
2023/06/13 11:26:46;;;;;;;50.28;46.88;;;24.10;99.90;;;;;;5038181;28;20041;-77
2023/06/13 11:29:13;;;;;;;51.53;48.35;;;24.50;99.90;;;;;;5040674;28;20700;-77
2023/06/13 11:31:50;;;;;;;52.25;49.03;;;23.90;99.90;;;;;;5057149;28;20048;-76
2023/06/13 11:34:23;;;;;;;50.75;47.08;;;23.70;99.90;;;;;;5048755;28;20037;-77
2023/06/13 11:36:54;;;;;;;45.95;42.78;;;23.90;99.90;;;;;;5055692;28;20037;-77
2023/06/13 11:39:30;;;;;;;47.17;44.28;;;24.00;99.90;;;;;;5044538;28;20076;-77
2023/06/13 11:42:04;;;;;;;51.95;48.50;;;24.20;99.90;;;;;;5034020;28;20052;-78
2023/06/13 11:44:31;;;;;;;51.45;48.05;;;24.10;99.90;;;;;;5032136;28;20047;-77
2023/06/13 11:46:58;;;;;;;51.85;48.55;;;24.60;98.60;;;;;;5050105;28;20433;-77
2023/06/13 11:49:25;;;;;;;50.63;47.22;;;25.10;99.90;;;;;;5040592;28;20124;-78
2023/06/13 11:51:53;;;;;;;50.90;47.38;;;25.70;98.60;;;;;;5053947;28;20044;-76
2023/06/13 11:54:31;;;;;;;51.60;48.25;;;25.70;98.60;;;;;;5031188;28;20470;-76
2023/06/13 11:56:57;;;;;;;51.10;47.70;;;25.30;98.10;;;;;;5041832;28;20043;-77
2023/06/13 11:59:28;;;;;;;53.00;49.80;;;25.40;98.50;;;;;;5032384;28;20044;-76
2023/06/13 12:01:55;;;;;;;52.28;48.63;;;25.30;97.70;;;;;;5037639;28;20101;-77
2023/06/13 12:04:23;;;;;;;52.85;49.35;;;25.60;96.60;;;;;;5032898;28;20630;-77
2023/06/13 12:06:52;;;;;;;51.35;48.03;;;25.40;97.70;;;;;;5039887;28;20547;-77
2023/06/13 12:09:19;;;;;;;52.22;49.03;;;24.90;97.30;;;;;;5047104;28;20072;-76
2023/06/13 12:11:46;;;;;;;52.53;49.13;;;25.00;97.60;;;;;;5054774;28;20040;-77
2023/06/13 12:14:13;;;;;;;52.17;48.88;;;25.30;98.30;;;;;;5055892;28;20459;-76
2023/06/13 12:16:40;;;;;;;53.63;50.33;;;25.80;96.60;;;;;;5032951;28;20039;-77
2023/06/13 12:19:09;;;;;;;54.70;50.55;;;25.70;96.70;;;;;;5054486;28;20044;-76
2023/06/13 12:21:37;;;;;;;46.15;43.00;;;25.70;97.20;;;;;;5053133;28;20115;-77
2023/06/13 12:24:08;;;;;;;46.95;43.95;;;25.50;97.80;;;;;;5038806;28;20525;-77
2023/06/13 12:26:41;;;;;;;52.53;48.85;;;25.00;97.20;;;;;;5053678;28;20519;-77
2023/06/13 12:29:11;;;;;;;52.45;48.85;;;25.00;98.70;;;;;;5061233;28;20036;-77
2023/06/13 12:31:42;;;;;;;50.05;46.75;;;25.50;99.30;;;;;;5041869;28;20045;-76
2023/06/13 12:34:16;;;;;;;52.20;49.00;;;25.70;97.40;;;;;;5040412;28;20047;-77
2023/06/13 12:36:44;;;;;;;53.08;49.55;;;25.90;97.30;;;;;;5047200;28;20567;-77
2023/06/13 12:39:16;;;;;;;52.60;49.25;;;26.20;99.80;;;;;;5052876;28;20048;-77
2023/06/13 12:41:47;;;;;;;50.20;47.13;;;25.80;99.00;;;;;;5049853;28;20098;-77
2023/06/13 12:44:15;;;;;;;50.72;47.33;;;25.50;98.80;;;;;;5049977;28;20047;-77
2023/06/13 12:46:43;;;;;;;50.70;47.30;;;25.90;98.70;;;;;;5033286;28;20043;-77